sensor_id;sensor_type;location;lat;lon;timestamp;pressure;altitude;pressure_sealevel;temperature;humidity
60697;BME280;46536;54.376;19.858;2022-12-31T00:01:46;101031.81;;;5.50;70.81
60697;BME280;46536;54.376;19.858;2022-12-31T00:04:15;101033.14;;;5.54;71.02
60697;BME280;46536;54.376;19.858;2022-12-31T00:06:44;101020.86;;;5.60;70.98
60697;BME280;46536;54.376;19.858;2022-12-31T00:09:13;101006.83;;;5.66;70.80
60697;BME280;46536;54.376;19.858;2022-12-31T00:11:42;100999.33;;;5.74;70.74
60697;BME280;46536;54.376;19.858;2022-12-31T00:14:11;100992.52;;;5.80;70.75
60697;BME280;46536;54.376;19.858;2022-12-31T00:16:40;100984.84;;;5.88;70.61
60697;BME280;46536;54.376;19.858;2022-12-31T00:19:10;100981.68;;;5.95;70.61
60697;BME280;46536;54.376;19.858;2022-12-31T00:21:40;100984.52;;;6.01;70.33
60697;BME280;46536;54.376;19.858;2022-12-31T00:24:10;100975.46;;;6.08;70.22
60697;BME280;46536;54.376;19.858;2022-12-31T00:26:40;100967.46;;;6.13;70.04
60697;BME280;46536;54.376;19.858;2022-12-31T00:29:09;100963.14;;;6.15;69.84
60697;BME280;46536;54.376;19.858;2022-12-31T00:31:38;100950.72;;;6.14;69.69
60697;BME280;46536;54.376;19.858;2022-12-31T00:34:08;100938.14;;;6.13;69.75
60697;BME280;46536;54.376;19.858;2022-12-31T00:36:38;100936.27;;;6.12;69.55
60697;BME280;46536;54.376;19.858;2022-12-31T00:39:09;100946.30;;;6.10;69.55
60697;BME280;46536;54.376;19.858;2022-12-31T00:41:38;100948.39;;;6.09;69.64
60697;BME280;46536;54.376;19.858;2022-12-31T00:44:08;100949.56;;;6.11;69.77
60697;BME280;46536;54.376;19.858;2022-12-31T00:46:37;100936.94;;;6.13;69.66
60697;BME280;46536;54.376;19.858;2022-12-31T00:49:04;100940.00;;;6.16;69.75
60697;BME280;46536;54.376;19.858;2022-12-31T00:51:33;100945.63;;;6.20;69.66
60697;BME280;46536;54.376;19.858;2022-12-31T00:54:02;100945.92;;;6.23;69.55
60697;BME280;46536;54.376;19.858;2022-12-31T00:56:32;100943.80;;;6.28;69.44
60697;BME280;46536;54.376;19.858;2022-12-31T00:59:01;100933.03;;;6.32;69.40
60697;BME280;46536;54.376;19.858;2022-12-31T01:01:40;100928.15;;;6.35;69.34
60697;BME280;46536;54.376;19.858;2022-12-31T01:04:18;100953.30;;;6.36;69.10
60697;BME280;46536;54.376;19.858;2022-12-31T01:06:47;100956.91;;;6.38;68.98
60697;BME280;46536;54.376;19.858;2022-12-31T01:09:16;100956.91;;;6.38;68.97
60697;BME280;46536;54.376;19.858;2022-12-31T01:11:49;100961.22;;;6.38;68.77
60697;BME280;46536;54.376;19.858;2022-12-31T01:14:18;100959.68;;;6.38;68.79
60697;BME280;46536;54.376;19.858;2022-12-31T01:16:50;100962.59;;;6.38;68.84
60697;BME280;46536;54.376;19.858;2022-12-31T01:19:28;100958.66;;;6.37;68.64
60697;BME280;46536;54.376;19.858;2022-12-31T01:21:57;100952.83;;;6.35;68.79
60697;BME280;46536;54.376;19.858;2022-12-31T01:24:26;100945.42;;;6.34;68.75
60697;BME280;46536;54.376;19.858;2022-12-31T01:26:54;100940.25;;;6.33;68.75
60697;BME280;46536;54.376;19.858;2022-12-31T01:29:26;100940.06;;;6.34;68.80
60697;BME280;46536;54.376;19.858;2022-12-31T01:31:55;100936.07;;;6.35;68.74
60697;BME280;46536;54.376;19.858;2022-12-31T01:34:24;100928.30;;;6.36;68.76
60697;BME280;46536;54.376;19.858;2022-12-31T01:36:53;100933.63;;;6.38;68.85
60697;BME280;46536;54.376;19.858;2022-12-31T01:39:22;100929.95;;;6.40;68.79
60697;BME280;46536;54.376;19.858;2022-12-31T01:41:50;100928.91;;;6.41;68.71
60697;BME280;46536;54.376;19.858;2022-12-31T01:47:00;100922.65;;;6.45;68.59
60697;BME280;46536;54.376;19.858;2022-12-31T01:49:40;100925.02;;;6.47;68.44
60697;BME280;46536;54.376;19.858;2022-12-31T01:52:41;100933.08;;;6.51;68.52
60697;BME280;46536;54.376;19.858;2022-12-31T01:55:33;100928.84;;;6.56;68.45
60697;BME280;46536;54.376;19.858;2022-12-31T01:58:25;100921.38;;;6.58;68.30
60697;BME280;46536;54.376;19.858;2022-12-31T02:00:57;100913.59;;;6.61;68.16
60697;BME280;46536;54.376;19.858;2022-12-31T02:03:27;100909.23;;;6.63;68.18
60697;BME280;46536;54.376;19.858;2022-12-31T02:06:06;100909.20;;;6.65;68.09
60697;BME280;46536;54.376;19.858;2022-12-31T02:08:38;100911.07;;;6.67;67.99
60697;BME280;46536;54.376;19.858;2022-12-31T02:11:31;100904.31;;;6.68;67.98
60697;BME280;46536;54.376;19.858;2022-12-31T02:14:02;100898.23;;;6.70;67.98
60697;BME280;46536;54.376;19.858;2022-12-31T02:16:41;100888.02;;;6.71;67.88
60697;BME280;46536;54.376;19.858;2022-12-31T02:22:13;100882.08;;;6.75;67.91
60697;BME280;46536;54.376;19.858;2022-12-31T02:30:30;100868.34;;;6.82;67.52
60697;BME280;46536;54.376;19.858;2022-12-31T02:35:56;100875.19;;;6.84;67.61
60697;BME280;46536;54.376;19.858;2022-12-31T02:38:35;100878.08;;;6.86;67.57
60697;BME280;46536;54.376;19.858;2022-12-31T02:41:11;100876.50;;;6.88;67.47
60697;BME280;46536;54.376;19.858;2022-12-31T02:52:20;100870.85;;;6.94;67.44
60697;BME280;46536;54.376;19.858;2022-12-31T02:57:38;100851.80;;;6.98;67.70
60697;BME280;46536;54.376;19.858;2022-12-31T03:00:14;100852.64;;;6.99;67.75
60697;BME280;46536;54.376;19.858;2022-12-31T03:03:04;100854.00;;;7.00;67.65
60697;BME280;46536;54.376;19.858;2022-12-31T03:05:39;100855.86;;;7.02;67.58
60697;BME280;46536;54.376;19.858;2022-12-31T03:08:10;100856.34;;;7.04;67.56
60697;BME280;46536;54.376;19.858;2022-12-31T03:10:39;100850.28;;;7.04;67.47
60697;BME280;46536;54.376;19.858;2022-12-31T03:13:11;100849.91;;;7.05;67.51
60697;BME280;46536;54.376;19.858;2022-12-31T03:15:41;100851.58;;;7.08;67.46
60697;BME280;46536;54.376;19.858;2022-12-31T03:18:16;100850.16;;;7.10;67.48
60697;BME280;46536;54.376;19.858;2022-12-31T03:20:49;100842.71;;;7.12;67.34
60697;BME280;46536;54.376;19.858;2022-12-31T03:23:42;100843.22;;;7.13;67.35
60697;BME280;46536;54.376;19.858;2022-12-31T03:26:31;100847.19;;;7.13;67.22
60697;BME280;46536;54.376;19.858;2022-12-31T03:29:02;100843.70;;;7.14;67.24
60697;BME280;46536;54.376;19.858;2022-12-31T03:31:33;100839.02;;;7.15;67.23
60697;BME280;46536;54.376;19.858;2022-12-31T03:34:03;100842.46;;;7.16;67.29
60697;BME280;46536;54.376;19.858;2022-12-31T03:36:34;100846.26;;;7.16;67.32
60697;BME280;46536;54.376;19.858;2022-12-31T03:39:05;100847.03;;;7.20;67.52
60697;BME280;46536;54.376;19.858;2022-12-31T03:41:34;100845.77;;;7.23;67.37
60697;BME280;46536;54.376;19.858;2022-12-31T03:44:05;100840.89;;;7.24;67.38
60697;BME280;46536;54.376;19.858;2022-12-31T03:46:35;100845.18;;;7.25;67.36
60697;BME280;46536;54.376;19.858;2022-12-31T03:49:06;100834.44;;;7.27;67.36
60697;BME280;46536;54.376;19.858;2022-12-31T03:51:38;100838.39;;;7.28;67.32
60697;BME280;46536;54.376;19.858;2022-12-31T03:54:10;100830.27;;;7.28;67.25
60697;BME280;46536;54.376;19.858;2022-12-31T03:56:43;100836.82;;;7.30;67.30
60697;BME280;46536;54.376;19.858;2022-12-31T03:59:19;100832.30;;;7.31;67.21
60697;BME280;46536;54.376;19.858;2022-12-31T04:01:52;100822.09;;;7.32;67.28
60697;BME280;46536;54.376;19.858;2022-12-31T04:04:25;100825.79;;;7.37;67.32
60697;BME280;46536;54.376;19.858;2022-12-31T04:06:58;100817.08;;;7.39;67.38
60697;BME280;46536;54.376;19.858;2022-12-31T04:09:31;100820.98;;;7.42;67.24
60697;BME280;46536;54.376;19.858;2022-12-31T04:12:05;100823.34;;;7.45;67.26
60697;BME280;46536;54.376;19.858;2022-12-31T04:14:37;100817.25;;;7.47;67.22
60697;BME280;46536;54.376;19.858;2022-12-31T04:17:10;100823.05;;;7.51;67.25
60697;BME280;46536;54.376;19.858;2022-12-31T04:19:43;100831.56;;;7.56;67.18
60697;BME280;46536;54.376;19.858;2022-12-31T04:22:15;100816.80;;;7.59;67.08
60697;BME280;46536;54.376;19.858;2022-12-31T04:24:48;100833.36;;;7.61;67.04
60697;BME280;46536;54.376;19.858;2022-12-31T04:27:21;100826.92;;;7.64;66.99
60697;BME280;46536;54.376;19.858;2022-12-31T04:29:54;100826.55;;;7.65;67.08
60697;BME280;46536;54.376;19.858;2022-12-31T04:32:27;100815.50;;;7.64;67.09
60697;BME280;46536;54.376;19.858;2022-12-31T04:35:00;100809.80;;;7.63;67.26
60697;BME280;46536;54.376;19.858;2022-12-31T04:37:33;100819.48;;;7.64;67.52
60697;BME280;46536;54.376;19.858;2022-12-31T04:40:07;100839.14;;;7.66;67.60
60697;BME280;46536;54.376;19.858;2022-12-31T04:42:39;100809.92;;;7.66;67.66
60697;BME280;46536;54.376;19.858;2022-12-31T04:45:12;100816.38;;;7.64;67.84
60697;BME280;46536;54.376;19.858;2022-12-31T04:47:45;100824.84;;;7.64;67.98
60697;BME280;46536;54.376;19.858;2022-12-31T04:58:28;100813.75;;;7.72;68.55
60697;BME280;46536;54.376;19.858;2022-12-31T05:00:57;100827.59;;;7.72;68.57
60697;BME280;46536;54.376;19.858;2022-12-31T05:03:27;100827.77;;;7.71;68.69
60697;BME280;46536;54.376;19.858;2022-12-31T05:06:00;100817.98;;;7.69;68.86
60697;BME280;46536;54.376;19.858;2022-12-31T05:08:31;100812.71;;;7.65;69.09
60697;BME280;46536;54.376;19.858;2022-12-31T05:11:00;100823.46;;;7.62;69.23
60697;BME280;46536;54.376;19.858;2022-12-31T05:13:30;100840.94;;;7.62;69.40
60697;BME280;46536;54.376;19.858;2022-12-31T05:16:02;100835.75;;;7.62;69.52
60697;BME280;46536;54.376;19.858;2022-12-31T05:18:31;100832.80;;;7.63;69.73
60697;BME280;46536;54.376;19.858;2022-12-31T05:21:01;100830.38;;;7.63;69.99
60697;BME280;46536;54.376;19.858;2022-12-31T05:23:30;100830.54;;;7.63;70.32
60697;BME280;46536;54.376;19.858;2022-12-31T05:25:59;100821.92;;;7.62;70.52
60697;BME280;46536;54.376;19.858;2022-12-31T05:28:29;100827.09;;;7.62;70.74
60697;BME280;46536;54.376;19.858;2022-12-31T05:31:00;100828.29;;;7.63;70.89
60697;BME280;46536;54.376;19.858;2022-12-31T05:33:29;100842.66;;;7.63;71.03
60697;BME280;46536;54.376;19.858;2022-12-31T05:35:58;100852.35;;;7.62;71.15
60697;BME280;46536;54.376;19.858;2022-12-31T05:38:28;100852.02;;;7.62;71.32
60697;BME280;46536;54.376;19.858;2022-12-31T05:41:02;100850.27;;;7.62;71.42
60697;BME280;46536;54.376;19.858;2022-12-31T05:43:31;100860.98;;;7.63;71.65
60697;BME280;46536;54.376;19.858;2022-12-31T05:46:02;100853.34;;;7.65;71.79
60697;BME280;46536;54.376;19.858;2022-12-31T05:48:32;100852.64;;;7.65;71.89
60697;BME280;46536;54.376;19.858;2022-12-31T05:51:01;100850.69;;;7.67;71.91
60697;BME280;46536;54.376;19.858;2022-12-31T05:53:30;100847.52;;;7.70;72.03
60697;BME280;46536;54.376;19.858;2022-12-31T05:55:59;100846.96;;;7.71;72.11
60697;BME280;46536;54.376;19.858;2022-12-31T05:58:29;100843.60;;;7.74;72.17
60697;BME280;46536;54.376;19.858;2022-12-31T06:00:58;100842.31;;;7.77;72.17
60697;BME280;46536;54.376;19.858;2022-12-31T06:03:27;100844.05;;;7.77;72.15
60697;BME280;46536;54.376;19.858;2022-12-31T06:05:56;100842.62;;;7.79;72.24
60697;BME280;46536;54.376;19.858;2022-12-31T06:08:25;100839.09;;;7.83;72.16
60697;BME280;46536;54.376;19.858;2022-12-31T06:10:54;100844.04;;;7.86;72.20
60697;BME280;46536;54.376;19.858;2022-12-31T06:13:24;100850.73;;;7.88;72.23
60697;BME280;46536;54.376;19.858;2022-12-31T06:15:53;100861.22;;;7.91;72.15
60697;BME280;46536;54.376;19.858;2022-12-31T06:18:22;100862.18;;;7.94;72.08
60697;BME280;46536;54.376;19.858;2022-12-31T06:20:51;100868.20;;;7.95;72.15
60697;BME280;46536;54.376;19.858;2022-12-31T06:23:20;100861.10;;;7.95;72.22
60697;BME280;46536;54.376;19.858;2022-12-31T06:25:49;100856.61;;;7.95;72.24
60697;BME280;46536;54.376;19.858;2022-12-31T06:28:18;100857.30;;;7.95;72.25
60697;BME280;46536;54.376;19.858;2022-12-31T06:30:48;100869.00;;;7.97;72.28
60697;BME280;46536;54.376;19.858;2022-12-31T06:33:18;100871.05;;;8.00;72.29
60697;BME280;46536;54.376;19.858;2022-12-31T06:35:47;100876.30;;;8.04;72.24
60697;BME280;46536;54.376;19.858;2022-12-31T06:38:16;100871.40;;;8.06;72.15
60697;BME280;46536;54.376;19.858;2022-12-31T06:40:46;100873.98;;;8.07;72.19
60697;BME280;46536;54.376;19.858;2022-12-31T06:43:15;100877.30;;;8.06;72.19
60697;BME280;46536;54.376;19.858;2022-12-31T06:45:44;100887.30;;;8.07;72.32
60697;BME280;46536;54.376;19.858;2022-12-31T06:48:14;100892.48;;;8.07;72.35
60697;BME280;46536;54.376;19.858;2022-12-31T06:50:43;100891.23;;;8.09;72.45
60697;BME280;46536;54.376;19.858;2022-12-31T06:53:12;100899.10;;;8.12;72.50
60697;BME280;46536;54.376;19.858;2022-12-31T06:55:42;100904.75;;;8.15;72.45
60697;BME280;46536;54.376;19.858;2022-12-31T06:58:12;100910.21;;;8.19;72.33
60697;BME280;46536;54.376;19.858;2022-12-31T07:10:09;100886.66;;;8.27;72.22
60697;BME280;46536;54.376;19.858;2022-12-31T07:12:55;100894.25;;;8.27;72.18
60697;BME280;46536;54.376;19.858;2022-12-31T07:18:40;100908.13;;;8.34;72.05
60697;BME280;46536;54.376;19.858;2022-12-31T07:21:14;100922.23;;;8.38;72.03
60697;BME280;46536;54.376;19.858;2022-12-31T07:23:43;100917.20;;;8.39;71.97
60697;BME280;46536;54.376;19.858;2022-12-31T07:29:40;100923.52;;;8.36;72.12
60697;BME280;46536;54.376;19.858;2022-12-31T07:43:46;100932.32;;;8.51;72.05
60697;BME280;46536;54.376;19.858;2022-12-31T07:48:56;100926.21;;;8.59;71.95
60697;BME280;46536;54.376;19.858;2022-12-31T07:51:26;100924.55;;;8.64;71.88
60697;BME280;46536;54.376;19.858;2022-12-31T07:53:55;100917.73;;;8.66;71.89
60697;BME280;46536;54.376;19.858;2022-12-31T07:56:24;100906.59;;;8.69;71.83
60697;BME280;46536;54.376;19.858;2022-12-31T08:04:30;100894.94;;;8.77;71.79
60697;BME280;46536;54.376;19.858;2022-12-31T08:09:57;100904.95;;;8.85;71.62
60697;BME280;46536;54.376;19.858;2022-12-31T08:12:34;100911.58;;;8.90;71.56
60697;BME280;46536;54.376;19.858;2022-12-31T08:15:17;100915.00;;;8.92;71.48
60697;BME280;46536;54.376;19.858;2022-12-31T08:18:00;100919.27;;;8.94;71.42
60697;BME280;46536;54.376;19.858;2022-12-31T08:23:47;100918.02;;;9.02;71.31
60697;BME280;46536;54.376;19.858;2022-12-31T08:26:36;100924.70;;;9.04;71.26
60697;BME280;46536;54.376;19.858;2022-12-31T08:29:34;100937.59;;;9.08;71.32
60697;BME280;46536;54.376;19.858;2022-12-31T08:32:11;100944.23;;;9.13;71.25
60697;BME280;46536;54.376;19.858;2022-12-31T08:35:05;100942.59;;;9.15;71.27
60697;BME280;46536;54.376;19.858;2022-12-31T08:38:49;100939.70;;;9.20;71.19
60697;BME280;46536;54.376;19.858;2022-12-31T08:49:32;100948.61;;;9.36;71.08
60697;BME280;46536;54.376;19.858;2022-12-31T08:52:02;100953.27;;;9.38;71.02
60697;BME280;46536;54.376;19.858;2022-12-31T08:54:32;100953.77;;;9.38;71.02
60697;BME280;46536;54.376;19.858;2022-12-31T08:57:41;100944.88;;;9.40;71.07
60697;BME280;46536;54.376;19.858;2022-12-31T09:00:18;100949.58;;;9.46;71.11
60697;BME280;46536;54.376;19.858;2022-12-31T09:19:53;100953.68;;;9.65;70.94
60697;BME280;46536;54.376;19.858;2022-12-31T09:22:22;100949.45;;;9.67;70.92
60697;BME280;46536;54.376;19.858;2022-12-31T09:24:52;100946.30;;;9.68;70.99
60697;BME280;46536;54.376;19.858;2022-12-31T09:27:27;100936.36;;;9.70;70.91
60697;BME280;46536;54.376;19.858;2022-12-31T09:30:05;100931.67;;;9.71;71.01
60697;BME280;46536;54.376;19.858;2022-12-31T09:50:03;100893.14;;;9.89;71.23
60697;BME280;46536;54.376;19.858;2022-12-31T09:59:12;100870.27;;;9.99;71.45
60697;BME280;46536;54.376;19.858;2022-12-31T10:21:12;100856.95;;;10.03;72.90
60697;BME280;46536;54.376;19.858;2022-12-31T10:26:27;100843.32;;;10.06;73.19
60697;BME280;46536;54.376;19.858;2022-12-31T10:34:37;100839.33;;;10.06;73.46
60697;BME280;46536;54.376;19.858;2022-12-31T10:37:16;100829.75;;;10.08;73.60
60697;BME280;46536;54.376;19.858;2022-12-31T10:40:23;100822.82;;;10.07;73.68
60697;BME280;46536;54.376;19.858;2022-12-31T10:57:24;100800.71;;;10.03;74.25
60697;BME280;46536;54.376;19.858;2022-12-31T11:00:19;100801.20;;;10.04;74.35
60697;BME280;46536;54.376;19.858;2022-12-31T11:17:10;100787.23;;;9.92;74.86
60697;BME280;46536;54.376;19.858;2022-12-31T11:29:01;100770.41;;;9.80;75.74
60697;BME280;46536;54.376;19.858;2022-12-31T11:37:11;100758.27;;;9.69;76.20
60697;BME280;46536;54.376;19.858;2022-12-31T11:40:40;100749.02;;;9.66;76.53
60697;BME280;46536;54.376;19.858;2022-12-31T11:42:58;100744.96;;;9.63;76.70
60697;BME280;46536;54.376;19.858;2022-12-31T11:45:50;100741.60;;;9.60;76.83
60697;BME280;46536;54.376;19.858;2022-12-31T11:49:01;100733.24;;;9.60;76.93
60697;BME280;46536;54.376;19.858;2022-12-31T12:03:05;100720.89;;;9.67;77.28
60697;BME280;46536;54.376;19.858;2022-12-31T12:05:35;100714.39;;;9.69;77.44
60697;BME280;46536;54.376;19.858;2022-12-31T12:08:06;100721.51;;;9.69;77.41
60697;BME280;46536;54.376;19.858;2022-12-31T12:10:43;100727.87;;;9.71;77.47
60697;BME280;46536;54.376;19.858;2022-12-31T12:13:26;100732.35;;;9.72;77.40
60697;BME280;46536;54.376;19.858;2022-12-31T12:16:00;100737.33;;;9.74;77.51
60697;BME280;46536;54.376;19.858;2022-12-31T12:18:41;100736.04;;;9.77;77.59
60697;BME280;46536;54.376;19.858;2022-12-31T12:21:21;100729.05;;;9.78;77.54
60697;BME280;46536;54.376;19.858;2022-12-31T12:24:19;100715.34;;;9.78;77.65
60697;BME280;46536;54.376;19.858;2022-12-31T12:26:49;100705.66;;;9.77;77.86
60697;BME280;46536;54.376;19.858;2022-12-31T12:29:21;100707.09;;;9.76;77.89
60697;BME280;46536;54.376;19.858;2022-12-31T12:31:59;100707.05;;;9.77;77.95
60697;BME280;46536;54.376;19.858;2022-12-31T12:34:38;100704.26;;;9.77;78.10
60697;BME280;46536;54.376;19.858;2022-12-31T12:40:19;100692.26;;;9.78;78.37
60697;BME280;46536;54.376;19.858;2022-12-31T12:42:49;100691.77;;;9.83;78.31
60697;BME280;46536;54.376;19.858;2022-12-31T12:45:20;100691.00;;;9.84;78.27
60697;BME280;46536;54.376;19.858;2022-12-31T12:47:58;100700.96;;;9.87;78.34
60697;BME280;46536;54.376;19.858;2022-12-31T12:50:38;100697.45;;;9.89;78.34
60697;BME280;46536;54.376;19.858;2022-12-31T13:01:42;100690.81;;;10.00;78.52
60697;BME280;46536;54.376;19.858;2022-12-31T13:12:37;100682.98;;;10.11;78.57
60697;BME280;46536;54.376;19.858;2022-12-31T13:20:54;100686.35;;;10.25;78.40
60697;BME280;46536;54.376;19.858;2022-12-31T13:23:26;100689.15;;;10.29;78.49
60697;BME280;46536;54.376;19.858;2022-12-31T13:26:11;100680.12;;;10.34;78.46
60697;BME280;46536;54.376;19.858;2022-12-31T13:28:45;100680.67;;;10.37;78.37
60697;BME280;46536;54.376;19.858;2022-12-31T13:31:26;100684.73;;;10.41;78.45
60697;BME280;46536;54.376;19.858;2022-12-31T13:34:15;100683.92;;;10.44;78.36
60697;BME280;46536;54.376;19.858;2022-12-31T13:36:47;100692.20;;;10.45;78.48
60697;BME280;46536;54.376;19.858;2022-12-31T13:39:22;100692.46;;;10.47;78.45
60697;BME280;46536;54.376;19.858;2022-12-31T13:45:01;100696.59;;;10.53;78.47
60697;BME280;46536;54.376;19.858;2022-12-31T13:47:45;100698.89;;;10.56;78.44
60697;BME280;46536;54.376;19.858;2022-12-31T13:50:33;100697.79;;;10.58;78.50
60697;BME280;46536;54.376;19.858;2022-12-31T13:53:17;100685.70;;;10.62;78.40
60697;BME280;46536;54.376;19.858;2022-12-31T13:55:56;100687.08;;;10.66;78.38
60697;BME280;46536;54.376;19.858;2022-12-31T14:06:48;100690.91;;;10.80;78.16
60697;BME280;46536;54.376;19.858;2022-12-31T14:09:32;100688.70;;;10.83;78.21
60697;BME280;46536;54.376;19.858;2022-12-31T14:14:57;100688.56;;;10.91;77.99
60697;BME280;46536;54.376;19.858;2022-12-31T14:20:32;100693.05;;;10.97;77.88
60697;BME280;46536;54.376;19.858;2022-12-31T14:26:00;100706.58;;;11.02;77.88
60697;BME280;46536;54.376;19.858;2022-12-31T14:28:42;100696.44;;;11.04;77.82
60697;BME280;46536;54.376;19.858;2022-12-31T14:37:28;100695.17;;;11.14;77.87
60697;BME280;46536;54.376;19.858;2022-12-31T14:46:02;100691.15;;;11.27;77.58
60697;BME280;46536;54.376;19.858;2022-12-31T14:51:30;100702.00;;;11.35;77.49
60697;BME280;46536;54.376;19.858;2022-12-31T14:54:00;100684.13;;;11.38;77.42
60697;BME280;46536;54.376;19.858;2022-12-31T14:59:27;100696.98;;;11.42;77.56
60697;BME280;46536;54.376;19.858;2022-12-31T15:02:27;100700.80;;;11.47;77.68
60697;BME280;46536;54.376;19.858;2022-12-31T15:10:39;100692.45;;;11.64;77.56
60697;BME280;46536;54.376;19.858;2022-12-31T15:13:51;100691.65;;;11.71;77.49
60697;BME280;46536;54.376;19.858;2022-12-31T15:22:38;100681.59;;;11.87;77.40
60697;BME280;46536;54.376;19.858;2022-12-31T15:25:25;100678.73;;;11.93;77.36
60697;BME280;46536;54.376;19.858;2022-12-31T15:28:04;100669.59;;;11.99;77.28
60697;BME280;46536;54.376;19.858;2022-12-31T15:30:42;100674.41;;;12.04;77.27
60697;BME280;46536;54.376;19.858;2022-12-31T15:33:20;100675.03;;;12.10;77.08
60697;BME280;46536;54.376;19.858;2022-12-31T15:35:56;100672.23;;;12.15;77.01
60697;BME280;46536;54.376;19.858;2022-12-31T15:46:36;100683.85;;;12.40;76.43
60697;BME280;46536;54.376;19.858;2022-12-31T15:49:16;100673.99;;;12.42;76.39
60697;BME280;46536;54.376;19.858;2022-12-31T15:51:59;100677.67;;;12.45;76.38
60697;BME280;46536;54.376;19.858;2022-12-31T15:54:49;100673.56;;;12.47;76.31
60697;BME280;46536;54.376;19.858;2022-12-31T15:57:39;100665.63;;;12.49;76.31
60697;BME280;46536;54.376;19.858;2022-12-31T16:00:20;100666.70;;;12.53;76.18
60697;BME280;46536;54.376;19.858;2022-12-31T16:02:53;100668.17;;;12.55;76.16
60697;BME280;46536;54.376;19.858;2022-12-31T16:05:28;100682.23;;;12.56;76.25
60697;BME280;46536;54.376;19.858;2022-12-31T16:08:04;100663.98;;;12.59;76.12
60697;BME280;46536;54.376;19.858;2022-12-31T16:10:37;100671.95;;;12.60;76.08
60697;BME280;46536;54.376;19.858;2022-12-31T16:13:19;100663.87;;;12.61;76.06
60697;BME280;46536;54.376;19.858;2022-12-31T16:16:03;100676.30;;;12.64;76.06
60697;BME280;46536;54.376;19.858;2022-12-31T16:18:42;100674.45;;;12.66;75.99
60697;BME280;46536;54.376;19.858;2022-12-31T16:21:33;100676.80;;;12.69;75.95
60697;BME280;46536;54.376;19.858;2022-12-31T16:24:30;100684.43;;;12.69;75.97
60697;BME280;46536;54.376;19.858;2022-12-31T16:27:15;100679.58;;;12.72;76.09
60697;BME280;46536;54.376;19.858;2022-12-31T16:30:03;100673.50;;;12.76;76.08
60697;BME280;46536;54.376;19.858;2022-12-31T16:32:38;100663.91;;;12.79;76.08
60697;BME280;46536;54.376;19.858;2022-12-31T16:35:31;100663.35;;;12.84;76.00
60697;BME280;46536;54.376;19.858;2022-12-31T16:38:12;100668.71;;;12.88;76.06
60697;BME280;46536;54.376;19.858;2022-12-31T16:41:06;100651.30;;;12.95;76.08
60697;BME280;46536;54.376;19.858;2022-12-31T16:43:41;100651.35;;;13.02;75.96
60697;BME280;46536;54.376;19.858;2022-12-31T16:46:25;100637.58;;;13.06;75.89
60697;BME280;46536;54.376;19.858;2022-12-31T16:49:02;100632.24;;;13.11;76.01
60697;BME280;46536;54.376;19.858;2022-12-31T17:00:04;100635.59;;;13.33;75.74
60697;BME280;46536;54.376;19.858;2022-12-31T17:02:41;100644.52;;;13.32;75.73
60697;BME280;46536;54.376;19.858;2022-12-31T17:05:23;100664.17;;;13.33;75.92
60697;BME280;46536;54.376;19.858;2022-12-31T17:07:52;100663.53;;;13.35;75.86
60697;BME280;46536;54.376;19.858;2022-12-31T17:10:25;100628.03;;;13.37;75.78
60697;BME280;46536;54.376;19.858;2022-12-31T17:13:00;100639.63;;;13.39;75.84
60697;BME280;46536;54.376;19.858;2022-12-31T17:15:54;100679.66;;;13.41;75.90
60697;BME280;46536;54.376;19.858;2022-12-31T17:18:31;100694.27;;;13.42;75.95
60697;BME280;46536;54.376;19.858;2022-12-31T17:21:08;100710.59;;;13.43;76.01
60697;BME280;46536;54.376;19.858;2022-12-31T17:23:39;100714.08;;;13.47;76.12
60697;BME280;46536;54.376;19.858;2022-12-31T17:26:12;100719.39;;;13.49;76.12
60697;BME280;46536;54.376;19.858;2022-12-31T17:28:47;100726.62;;;13.51;76.06
60697;BME280;46536;54.376;19.858;2022-12-31T17:31:37;100722.56;;;13.52;76.04
60697;BME280;46536;54.376;19.858;2022-12-31T17:37:10;100728.34;;;13.59;75.83
60697;BME280;46536;54.376;19.858;2022-12-31T17:45:19;100719.30;;;13.62;75.48
60697;BME280;46536;54.376;19.858;2022-12-31T17:47:49;100705.69;;;13.62;75.31
60697;BME280;46536;54.376;19.858;2022-12-31T17:50:24;100704.96;;;13.62;75.24
60697;BME280;46536;54.376;19.858;2022-12-31T17:53:10;100703.46;;;13.61;75.05
60697;BME280;46536;54.376;19.858;2022-12-31T17:55:41;100692.27;;;13.62;74.93
60697;BME280;46536;54.376;19.858;2022-12-31T17:58:17;100688.81;;;13.61;74.86
60697;BME280;46536;54.376;19.858;2022-12-31T18:00:53;100694.04;;;13.61;74.74
60697;BME280;46536;54.376;19.858;2022-12-31T18:03:22;100699.10;;;13.61;74.64
60697;BME280;46536;54.376;19.858;2022-12-31T18:05:52;100695.95;;;13.61;74.74
60697;BME280;46536;54.376;19.858;2022-12-31T18:08:21;100693.33;;;13.61;74.57
60697;BME280;46536;54.376;19.858;2022-12-31T18:10:51;100696.30;;;13.61;74.44
60697;BME280;46536;54.376;19.858;2022-12-31T18:13:23;100688.73;;;13.62;74.46
60697;BME280;46536;54.376;19.858;2022-12-31T18:15:53;100688.33;;;13.64;74.42
60697;BME280;46536;54.376;19.858;2022-12-31T18:18:24;100699.20;;;13.66;74.37
60697;BME280;46536;54.376;19.858;2022-12-31T18:20:59;100714.69;;;13.67;74.23
60697;BME280;46536;54.376;19.858;2022-12-31T18:23:43;100719.35;;;13.68;74.16
60697;BME280;46536;54.376;19.858;2022-12-31T18:26:18;100706.87;;;13.69;74.13
60697;BME280;46536;54.376;19.858;2022-12-31T18:28:49;100707.17;;;13.70;74.06
60697;BME280;46536;54.376;19.858;2022-12-31T18:31:24;100710.80;;;13.71;74.07
60697;BME280;46536;54.376;19.858;2022-12-31T18:33:55;100710.57;;;13.73;73.93
60697;BME280;46536;54.376;19.858;2022-12-31T18:36:26;100711.39;;;13.73;73.89
60697;BME280;46536;54.376;19.858;2022-12-31T18:38:55;100710.74;;;13.76;73.87